createdAt,value
2022-11-04T00:01:59.984Z,29.00
2022-11-04T00:04:30.972Z,28.80
2022-11-04T00:06:59.431Z,33.27
2022-11-04T00:09:30.174Z,29.17
2022-11-04T00:12:16.532Z,28.43
2022-11-04T00:14:45.249Z,29.77
2022-11-04T00:17:22.944Z,34.23
2022-11-04T00:20:11.474Z,33.07
2022-11-04T00:22:58.177Z,29.40
2022-11-04T00:25:44.552Z,29.60
2022-11-04T00:28:32.040Z,39.07
2022-11-04T00:31:22.995Z,34.43
2022-11-04T00:33:51.926Z,33.50
2022-11-04T00:36:22.678Z,33.73
2022-11-04T00:38:51.037Z,42.27
2022-11-04T00:41:28.957Z,35.03
2022-11-04T00:43:59.088Z,38.17
2022-11-04T00:46:28.839Z,46.17
2022-11-04T00:48:57.758Z,47.63
2022-11-04T00:51:27.720Z,53.23
2022-11-04T00:53:58.116Z,65.43
2022-11-04T00:56:26.454Z,57.23
2022-11-04T00:58:54.946Z,62.40
2022-11-04T01:01:23.445Z,70.70
2022-11-04T01:03:54.402Z,64.30
2022-11-04T01:06:24.454Z,89.30
2022-11-04T01:08:58.544Z,111.20
2022-11-04T01:11:28.282Z,127.60
2022-11-04T01:13:57.495Z,92.47
2022-11-04T01:18:56.591Z,76.63
2022-11-04T01:21:24.997Z,70.53
2022-11-04T01:23:53.781Z,77.80
2022-11-04T01:26:25.486Z,70.40
2022-11-04T01:28:55.581Z,73.00
2022-11-04T01:31:25.570Z,82.83
2022-11-04T01:33:55.075Z,84.17
2022-11-04T01:36:24.102Z,88.87
2022-11-04T01:38:52.617Z,99.00
2022-11-04T01:41:24.563Z,95.70
2022-11-04T01:43:54.932Z,92.83
2022-11-04T01:46:30.283Z,92.63
2022-11-04T01:49:04.928Z,91.53
2022-11-04T01:51:36.688Z,87.73
2022-11-04T01:54:07.449Z,99.93
2022-11-04T01:56:37.750Z,108.63
2022-11-04T01:59:10.093Z,106.17
2022-11-04T02:01:38.478Z,130.77
2022-11-04T02:04:25.148Z,125.97
2022-11-04T02:06:57.561Z,121.60
2022-11-04T02:09:29.677Z,140.23
2022-11-04T02:12:16.944Z,170.73
2022-11-04T02:14:47.739Z,31.43
2022-11-04T02:17:30.101Z,38.60
2022-11-04T02:20:25.143Z,32.07
2022-11-04T02:23:38.032Z,30.57
2022-11-04T02:26:40.543Z,22.53
2022-11-04T02:29:21.274Z,32.13
2022-11-04T02:31:57.989Z,29.33
2022-11-04T02:34:34.680Z,35.27
2022-11-04T02:37:10.617Z,33.13
2022-11-04T02:39:49.560Z,36.10
2022-11-04T02:42:25.495Z,26.10
2022-11-04T02:45:09.448Z,26.50
2022-11-04T02:47:40.521Z,24.83
2022-11-04T02:50:14.218Z,25.87
2022-11-04T02:52:50.272Z,30.53
2022-11-04T02:55:23.867Z,25.90
2022-11-04T02:57:56.206Z,30.43
2022-11-04T03:00:26.604Z,30.53
2022-11-04T03:02:58.635Z,29.70
2022-11-04T03:05:29.368Z,31.60
2022-11-04T03:08:01.637Z,31.13
2022-11-04T03:10:36.758Z,31.20
2022-11-04T03:13:11.282Z,32.63
2022-11-04T03:15:43.172Z,28.03
2022-11-04T03:18:21.141Z,30.93
2022-11-04T03:20:51.001Z,28.57
2022-11-04T03:23:20.032Z,33.47
2022-11-04T03:25:52.069Z,30.50
2022-11-04T03:28:28.407Z,31.27
2022-11-04T03:31:02.241Z,35.80
2022-11-04T03:33:39.412Z,26.67
2022-11-04T03:36:09.052Z,33.07
2022-11-04T03:38:38.199Z,32.20
2022-11-04T03:41:12.981Z,28.73
2022-11-04T03:43:42.794Z,29.37
2022-11-04T03:46:12.680Z,32.80
2022-11-04T03:48:42.924Z,29.83
2022-11-04T03:51:11.237Z,33.50
2022-11-04T03:53:39.953Z,31.80
2022-11-04T03:56:30.830Z,31.90
2022-11-04T03:59:11.925Z,34.60
2022-11-04T04:01:49.352Z,31.80
2022-11-04T04:04:24.019Z,32.03
2022-11-04T04:06:55.750Z,29.47
2022-11-04T04:09:27.815Z,31.60
2022-11-04T04:12:02.876Z,31.30
2022-11-04T04:14:41.341Z,29.83
2022-11-04T04:17:19.193Z,26.80
2022-11-04T04:19:53.343Z,25.63
2022-11-04T04:22:24.664Z,32.93
2022-11-04T04:25:14.164Z,31.60
2022-11-04T04:27:43.838Z,30.33
2022-11-04T04:30:14.640Z,30.93
2022-11-04T04:32:47.567Z,29.00
2022-11-04T04:35:34.259Z,23.20
2022-11-04T04:38:19.073Z,26.17
2022-11-04T04:41:10.041Z,29.73
2022-11-04T04:44:11.608Z,27.00
2022-11-04T04:46:41.003Z,29.57
2022-11-04T04:49:10.972Z,30.20
2022-11-04T04:51:41.984Z,27.83
2022-11-04T04:54:10.352Z,30.30
2022-11-04T04:56:39.051Z,28.50
2022-11-04T04:59:07.756Z,29.27
2022-11-04T05:01:36.421Z,30.50
2022-11-04T05:04:04.871Z,27.27
2022-11-04T05:06:34.814Z,32.00
2022-11-04T05:09:03.032Z,28.17
2022-11-04T05:11:31.605Z,28.40
2022-11-04T05:13:59.943Z,29.07
2022-11-04T05:16:28.416Z,27.73
2022-11-04T05:18:56.678Z,36.00
2022-11-04T05:21:25.198Z,27.73
2022-11-04T05:23:54.810Z,33.10
2022-11-04T05:26:23.513Z,40.93
2022-11-04T05:28:51.735Z,31.23
2022-11-04T05:31:20.183Z,31.57
2022-11-04T05:33:48.470Z,34.80
2022-11-04T05:36:18.576Z,39.53
2022-11-04T05:38:51.563Z,36.10
2022-11-04T05:41:26.602Z,32.73
2022-11-04T05:43:55.592Z,31.53
2022-11-04T05:46:25.097Z,34.03
2022-11-04T05:48:53.678Z,37.23
2022-11-04T05:51:24.510Z,34.63
2022-11-04T05:53:52.831Z,33.83
2022-11-04T05:56:22.691Z,30.50
2022-11-04T05:58:50.908Z,32.97
2022-11-04T06:01:29.573Z,36.57
2022-11-04T06:03:59.164Z,35.27
2022-11-04T06:06:30.092Z,35.57
2022-11-04T06:08:58.718Z,40.77
2022-11-04T06:11:30.052Z,29.37
2022-11-04T06:13:58.878Z,27.97
2022-11-04T06:16:27.781Z,36.33
2022-11-04T06:18:59.950Z,35.40
2022-11-04T06:21:33.990Z,28.80
2022-11-04T06:24:02.321Z,39.30
2022-11-04T06:26:32.185Z,30.03
2022-11-04T06:29:00.425Z,32.53
2022-11-04T06:31:28.972Z,36.83
2022-11-04T06:33:57.233Z,37.33
2022-11-04T06:36:25.759Z,31.30
2022-11-04T06:38:56.607Z,34.00
2022-11-04T06:41:28.616Z,30.57
2022-11-04T06:43:58.287Z,31.77
2022-11-04T06:46:29.370Z,38.23
2022-11-04T06:48:58.044Z,28.80
2022-11-04T06:51:26.955Z,30.53
2022-11-04T06:53:55.233Z,32.83
2022-11-04T06:56:24.072Z,38.00
2022-11-04T06:58:53.678Z,35.57
2022-11-04T07:01:25.915Z,37.80
2022-11-04T07:03:57.159Z,35.20
2022-11-04T07:06:26.498Z,33.53
2022-11-04T07:08:55.024Z,41.70
2022-11-04T07:11:25.099Z,38.90
2022-11-04T07:13:53.755Z,32.63
2022-11-04T07:16:23.919Z,35.07
2022-11-04T07:18:52.292Z,28.23
2022-11-04T07:21:20.812Z,30.70
2022-11-04T07:23:49.083Z,37.03
2022-11-04T07:26:17.956Z,32.67
2022-11-04T07:28:46.178Z,32.77
2022-11-04T07:31:15.804Z,42.03
2022-11-04T07:33:49.824Z,46.73
2022-11-04T07:36:19.329Z,34.47
2022-11-04T07:38:48.622Z,36.67
2022-11-04T07:41:18.171Z,28.87
2022-11-04T07:43:50.955Z,35.67
2022-11-04T07:46:20.761Z,38.30
2022-11-04T07:48:50.381Z,25.87
2022-11-04T07:51:21.865Z,28.10
2022-11-04T07:53:50.651Z,34.37
2022-11-04T07:56:20.007Z,26.87
2022-11-04T07:58:48.309Z,29.17
2022-11-04T08:01:19.796Z,28.53
2022-11-04T08:03:49.980Z,29.60
2022-11-04T08:06:21.281Z,32.87
2022-11-04T08:08:49.686Z,29.13
2022-11-04T08:11:20.660Z,24.70
2022-11-04T08:13:50.337Z,27.70
2022-11-04T08:16:21.910Z,26.63
2022-11-04T08:18:52.636Z,27.90
2022-11-04T08:21:23.003Z,31.07
2022-11-04T08:23:51.628Z,23.30
2022-11-04T08:26:21.395Z,24.37
2022-11-04T08:28:49.961Z,33.17
2022-11-04T08:31:20.497Z,29.67
2022-11-04T08:33:49.199Z,39.37
2022-11-04T08:36:20.144Z,30.33
2022-11-04T08:38:50.151Z,25.90
2022-11-04T08:41:21.966Z,27.00
2022-11-04T08:43:50.463Z,30.47
2022-11-04T08:46:19.559Z,28.50
2022-11-04T08:48:49.419Z,28.93
2022-11-04T08:51:22.427Z,33.93
2022-11-04T08:53:52.571Z,30.63
2022-11-04T08:56:23.921Z,37.37
2022-11-04T08:58:53.307Z,35.93
2022-11-04T09:01:23.064Z,36.30
2022-11-04T09:03:52.004Z,31.97
2022-11-04T09:06:22.931Z,36.90
2022-11-04T09:08:55.280Z,30.80
2022-11-04T09:11:24.179Z,29.33
2022-11-04T09:13:53.212Z,28.30
2022-11-04T09:16:21.725Z,30.83
2022-11-04T09:18:50.021Z,27.13
2022-11-04T09:21:18.534Z,33.70
2022-11-04T09:23:47.027Z,29.50
2022-11-04T09:26:17.780Z,30.50
2022-11-04T09:28:46.375Z,32.65
2022-11-04T09:31:17.444Z,31.30
2022-11-04T09:33:46.434Z,29.63
2022-11-04T09:36:15.054Z,32.88
2022-11-04T09:38:44.977Z,30.25
2022-11-04T09:41:34.726Z,29.40
2022-11-04T09:44:12.901Z,22.08
2022-11-04T09:46:42.527Z,34.05
2022-11-04T09:49:13.937Z,32.45
2022-11-04T09:51:54.538Z,29.60
2022-11-04T09:54:25.800Z,33.65
2022-11-04T09:56:58.954Z,32.03
2022-11-04T09:59:30.428Z,31.08
2022-11-04T10:02:22.479Z,36.17
2022-11-04T10:05:00.431Z,28.88
2022-11-04T10:07:44.135Z,32.33
2022-11-04T10:10:20.747Z,28.02
2022-11-04T10:13:09.443Z,28.25
2022-11-04T10:16:06.685Z,29.08
2022-11-04T10:18:47.933Z,30.92
2022-11-04T10:21:28.496Z,33.55
2022-11-04T10:24:08.957Z,37.63
2022-11-04T10:26:44.253Z,30.17
2022-11-04T10:29:17.787Z,35.88
2022-11-04T10:31:47.593Z,30.60
2022-11-04T10:34:30.829Z,34.45
2022-11-04T10:36:59.899Z,33.80
2022-11-04T10:39:31.370Z,33.22
2022-11-04T10:41:59.867Z,24.10
2022-11-04T10:44:33.298Z,28.75
2022-11-04T10:47:10.245Z,29.05
2022-11-04T10:50:21.956Z,28.40
2022-11-04T10:52:38.989Z,29.95
2022-11-04T10:55:16.208Z,27.95
2022-11-04T10:57:45.001Z,32.60
2022-11-04T11:00:34.993Z,30.17
2022-11-04T11:03:04.957Z,28.55
2022-11-04T11:05:33.451Z,26.00
2022-11-04T11:08:02.384Z,35.25
2022-11-04T11:10:33.488Z,27.83
2022-11-04T11:13:04.558Z,29.17
2022-11-04T11:15:36.694Z,36.05
2022-11-04T11:18:15.384Z,30.90
2022-11-04T11:20:48.946Z,31.75
2022-11-04T11:23:39.099Z,25.17
2022-11-04T11:26:09.894Z,27.00
2022-11-04T11:28:40.592Z,30.02
2022-11-04T11:31:16.675Z,26.77
2022-11-04T11:33:55.802Z,27.58
2022-11-04T11:36:26.427Z,28.25
2022-11-04T11:39:03.622Z,28.85
2022-11-04T11:41:33.660Z,25.13
2022-11-04T11:44:17.988Z,29.08
2022-11-04T11:46:54.698Z,26.77
2022-11-04T11:49:28.383Z,23.52
2022-11-04T11:51:57.454Z,29.60
2022-11-04T11:54:33.817Z,28.08
2022-11-04T11:57:16.039Z,28.95
2022-11-04T12:02:49.859Z,25.95
2022-11-04T12:11:20.943Z,29.48
2022-11-04T12:13:54.256Z,23.95
2022-11-04T12:16:32.299Z,24.70
2022-11-04T12:19:18.667Z,25.08
2022-11-04T12:21:55.598Z,28.08
2022-11-04T12:24:35.646Z,25.42
2022-11-04T12:27:14.215Z,27.58
2022-11-04T12:29:56.835Z,25.65
2022-11-04T12:32:32.917Z,28.23
2022-11-04T12:35:26.754Z,28.05
2022-11-04T12:38:06.879Z,28.50
2022-11-04T12:41:04.975Z,28.58
2022-11-04T12:43:42.146Z,24.73
2022-11-04T12:46:17.203Z,32.63
2022-11-04T12:49:07.317Z,26.98
2022-11-04T12:51:45.718Z,33.00
2022-11-04T12:54:40.038Z,25.02
2022-11-04T12:57:19.883Z,28.33
2022-11-04T13:00:09.434Z,28.95
2022-11-04T13:02:43.746Z,25.60
2022-11-04T13:05:27.254Z,29.67
2022-11-04T13:08:04.020Z,30.15
2022-11-04T13:10:40.914Z,32.25
2022-11-04T13:13:11.409Z,27.98
2022-11-04T13:15:46.944Z,26.15
2022-11-04T13:18:20.323Z,25.13
2022-11-04T13:20:57.919Z,32.83
2022-11-04T13:23:38.364Z,33.60
2022-11-04T13:26:11.171Z,31.08
2022-11-04T13:28:41.885Z,38.45
2022-11-04T13:31:16.337Z,43.35
2022-11-04T13:33:51.990Z,38.53
2022-11-04T13:36:30.515Z,34.90
2022-11-04T13:39:07.074Z,33.80
2022-11-04T13:42:14.241Z,33.88
2022-11-04T13:44:46.590Z,34.72
2022-11-04T13:47:22.168Z,33.60
2022-11-04T13:49:53.803Z,36.38
2022-11-04T13:52:22.758Z,30.10
2022-11-04T13:54:58.536Z,26.23
2022-11-04T13:57:28.980Z,26.80
2022-11-04T14:00:25.437Z,33.70
2022-11-04T14:02:54.957Z,30.77
2022-11-04T14:06:05.012Z,29.63
2022-11-04T14:08:34.175Z,33.45
2022-11-04T14:11:10.454Z,28.60
2022-11-04T14:14:05.177Z,28.83
2022-11-04T14:16:44.943Z,31.88
2022-11-04T14:19:55.742Z,33.38
2022-11-04T14:22:32.280Z,35.58
2022-11-04T14:25:02.576Z,34.10
2022-11-04T14:27:41.530Z,30.85
2022-11-04T14:30:32.232Z,29.58
2022-11-04T14:33:05.020Z,32.75
2022-11-04T14:35:34.086Z,29.17
2022-11-04T14:38:17.909Z,26.17
2022-11-04T14:40:49.182Z,28.15
2022-11-04T14:43:36.000Z,28.55
2022-11-04T14:46:04.700Z,37.88
2022-11-04T14:48:34.283Z,34.80
2022-11-04T14:51:05.228Z,35.60
2022-11-04T14:53:37.601Z,29.20
2022-11-04T14:56:07.539Z,31.98
2022-11-04T14:58:38.519Z,30.63
2022-11-04T15:01:07.791Z,30.10
2022-11-04T15:06:40.633Z,32.58
2022-11-04T15:09:29.168Z,36.92
2022-11-04T15:12:21.060Z,30.00
2022-11-04T15:14:50.914Z,29.88
2022-11-04T15:17:22.320Z,26.52
2022-11-04T15:19:54.264Z,27.80
2022-11-04T15:22:23.257Z,23.40
2022-11-04T15:24:52.209Z,28.58
2022-11-04T15:27:25.537Z,31.15
2022-11-04T15:29:57.073Z,28.40
2022-11-04T15:32:26.034Z,31.67
2022-11-04T15:34:55.377Z,30.90
2022-11-04T15:37:25.071Z,31.73
2022-11-04T15:39:56.173Z,28.95
2022-11-04T15:42:43.004Z,31.17
2022-11-04T15:45:32.521Z,22.85
2022-11-04T15:48:23.688Z,31.17
2022-11-04T15:50:58.721Z,43.22
2022-11-04T15:53:27.007Z,35.33
2022-11-04T15:55:55.928Z,33.28
2022-11-04T15:58:25.701Z,32.95
2022-11-04T16:00:57.039Z,29.45
2022-11-04T16:03:25.550Z,28.33
2022-11-04T16:06:05.316Z,42.83
2022-11-04T16:08:34.193Z,49.22
2022-11-04T16:11:17.016Z,45.22
2022-11-04T16:13:46.456Z,35.38
2022-11-04T16:16:23.556Z,32.28
2022-11-04T16:18:54.266Z,32.50
2022-11-04T16:21:26.841Z,32.65
2022-11-04T16:24:00.963Z,33.08
2022-11-04T16:26:37.556Z,31.52
2022-11-04T16:29:10.539Z,34.38
2022-11-04T16:31:41.016Z,34.03
2022-11-04T16:34:12.430Z,36.83
2022-11-04T16:36:41.156Z,34.67
2022-11-04T16:39:09.602Z,37.92
2022-11-04T16:41:41.537Z,35.97
2022-11-04T16:44:20.953Z,33.03
2022-11-04T16:46:50.947Z,33.45
2022-11-04T16:49:20.684Z,34.53
2022-11-04T16:51:54.306Z,35.25
2022-11-04T16:54:22.799Z,45.38
2022-11-04T16:56:51.616Z,33.60
2022-11-04T16:59:19.838Z,32.60
2022-11-04T17:01:48.598Z,32.33
2022-11-04T17:04:18.572Z,36.90
2022-11-04T17:06:47.256Z,38.95
2022-11-04T17:09:22.883Z,40.88
2022-11-04T17:11:51.576Z,35.83
2022-11-04T17:14:19.865Z,33.13
2022-11-04T17:16:48.528Z,30.50
2022-11-04T17:19:18.467Z,36.53
2022-11-04T17:21:47.655Z,37.88
2022-11-04T17:24:16.078Z,37.38
2022-11-04T17:26:46.190Z,36.38
2022-11-04T17:29:17.265Z,42.00
2022-11-04T17:31:46.343Z,38.83
2022-11-04T17:34:14.745Z,37.90
2022-11-04T17:36:44.753Z,38.63
2022-11-04T17:39:13.050Z,39.63
2022-11-04T17:41:59.191Z,39.80
2022-11-04T17:44:27.827Z,38.20
2022-11-04T17:46:57.835Z,39.35
2022-11-04T17:49:26.972Z,47.13
2022-11-04T17:52:00.570Z,47.53
2022-11-04T17:54:30.737Z,39.20
2022-11-04T17:56:59.722Z,50.67
2022-11-04T17:59:31.208Z,39.85
2022-11-04T18:02:04.420Z,40.78
2022-11-04T18:04:33.365Z,44.55
2022-11-04T18:07:04.017Z,40.28
2022-11-04T18:09:33.753Z,38.60
2022-11-04T18:12:21.888Z,38.63
2022-11-04T18:14:50.553Z,37.88
2022-11-04T18:17:20.376Z,44.40
2022-11-04T18:19:48.874Z,35.55
2022-11-04T18:22:19.171Z,34.35
2022-11-04T18:24:48.028Z,40.03
2022-11-04T18:27:16.881Z,40.58
2022-11-04T18:29:45.504Z,36.55
2022-11-04T18:32:14.345Z,45.58
2022-11-04T18:34:42.770Z,45.58
2022-11-04T18:37:11.397Z,59.97
2022-11-04T18:39:42.499Z,44.97
2022-11-04T18:42:11.702Z,39.17
2022-11-04T18:44:40.153Z,37.03
2022-11-04T18:47:08.772Z,40.85
2022-11-04T18:49:37.243Z,36.63
2022-11-04T18:52:06.058Z,33.75
2022-11-04T18:54:34.591Z,39.60
2022-11-04T18:57:05.180Z,37.22
2022-11-04T18:59:33.633Z,49.35
2022-11-04T19:02:02.963Z,61.78
2022-11-04T19:04:32.253Z,48.17
2022-11-04T19:07:02.015Z,39.25
2022-11-04T19:09:47.367Z,41.22
2022-11-04T19:12:35.775Z,39.17
2022-11-04T19:15:05.868Z,47.35
2022-11-04T19:17:36.764Z,53.35
2022-11-04T19:20:11.686Z,48.80
2022-11-04T19:22:41.520Z,38.65
2022-11-04T19:25:11.024Z,49.25
2022-11-04T19:27:41.142Z,49.78
2022-11-04T19:30:10.781Z,42.53
2022-11-04T19:32:40.076Z,45.00
2022-11-04T19:35:09.158Z,47.30
2022-11-04T19:37:37.964Z,38.88
2022-11-04T19:40:08.056Z,42.90
2022-11-04T19:42:54.520Z,44.30
2022-11-04T19:45:24.467Z,44.83
2022-11-04T19:47:53.573Z,50.97
2022-11-04T19:50:23.037Z,44.67
2022-11-04T19:52:52.495Z,44.50
2022-11-04T19:55:21.779Z,50.85
2022-11-04T19:57:51.212Z,38.90
2022-11-04T20:00:20.765Z,41.23
2022-11-04T20:02:51.953Z,46.00
2022-11-04T20:05:21.368Z,41.93
2022-11-04T20:07:54.433Z,39.50
2022-11-04T20:10:24.739Z,41.17
2022-11-04T20:13:23.252Z,44.77
2022-11-04T20:15:52.519Z,44.37
2022-11-04T20:18:23.017Z,40.40
2022-11-04T20:20:51.968Z,37.57
2022-11-04T20:23:21.098Z,41.87
2022-11-04T20:25:50.347Z,33.07
2022-11-04T20:28:20.197Z,40.60
2022-11-04T20:30:49.872Z,38.90
2022-11-04T20:33:18.966Z,35.87
2022-11-04T20:35:48.989Z,40.10
2022-11-04T20:38:18.249Z,35.37
2022-11-04T20:40:47.797Z,39.90
2022-11-04T20:43:17.963Z,45.80
2022-11-04T20:45:52.080Z,42.77
2022-11-04T20:48:21.485Z,39.67
2022-11-04T20:50:51.192Z,49.43
2022-11-04T20:53:20.838Z,37.93
2022-11-04T20:55:49.946Z,42.23
2022-11-04T20:58:18.813Z,41.30
2022-11-04T21:00:49.191Z,45.13
2022-11-04T21:03:18.110Z,41.00
2022-11-04T21:05:46.620Z,47.53
2022-11-04T21:08:17.440Z,42.20
2022-11-04T21:10:52.674Z,46.30
2022-11-04T21:13:22.175Z,44.67
2022-11-04T21:15:53.279Z,45.80
2022-11-04T21:18:23.265Z,47.07
2022-11-04T21:20:52.743Z,51.20
2022-11-04T21:23:24.680Z,50.90
2022-11-04T21:25:55.931Z,42.97
2022-11-04T21:28:25.323Z,54.63
2022-11-04T21:30:55.272Z,48.97
2022-11-04T21:33:24.042Z,51.00
2022-11-04T21:35:52.624Z,47.83
2022-11-04T21:38:24.461Z,48.00
2022-11-04T21:40:53.008Z,47.23
2022-11-04T21:43:21.972Z,50.47
2022-11-04T21:45:50.432Z,47.43
2022-11-04T21:48:19.178Z,49.53
2022-11-04T21:50:47.586Z,56.53
2022-11-04T21:53:16.247Z,51.07
2022-11-04T21:55:45.996Z,53.07
2022-11-04T21:58:14.621Z,60.70
2022-11-04T22:00:43.019Z,52.93
2022-11-04T22:03:12.363Z,55.17
2022-11-04T22:05:40.838Z,58.20
2022-11-04T22:08:18.797Z,48.47
2022-11-04T22:10:48.439Z,48.37
2022-11-04T22:13:17.080Z,60.20
2022-11-04T22:16:00.843Z,58.77
2022-11-04T22:18:32.075Z,68.17
2022-11-04T22:21:03.845Z,56.93
2022-11-04T22:23:32.461Z,57.37
2022-11-04T22:26:02.671Z,59.77
2022-11-04T22:28:32.282Z,57.90
2022-11-04T22:31:06.903Z,52.20
2022-11-04T22:33:35.689Z,57.83
2022-11-04T22:36:04.183Z,59.87
2022-11-04T22:38:33.097Z,60.43
2022-11-04T22:41:03.682Z,62.30
2022-11-04T22:43:32.677Z,54.33
2022-11-04T22:46:06.321Z,58.50
2022-11-04T22:48:35.608Z,57.97
2022-11-04T22:51:03.952Z,57.70
2022-11-04T22:53:32.576Z,53.57
2022-11-04T22:56:03.672Z,59.10
2022-11-04T22:58:32.276Z,56.00
2022-11-04T23:01:02.355Z,54.80
2022-11-04T23:03:31.882Z,67.17
2022-11-04T23:06:02.175Z,55.40
2022-11-04T23:08:32.374Z,57.77
2022-11-04T23:11:21.075Z,51.63
2022-11-04T23:14:13.193Z,54.63
2022-11-04T23:17:05.052Z,45.80
2022-11-04T23:19:33.848Z,59.10
2022-11-04T23:22:19.463Z,54.60
2022-11-04T23:25:05.918Z,58.43
2022-11-04T23:27:53.386Z,56.73
2022-11-04T23:30:22.746Z,50.07
2022-11-04T23:32:52.145Z,50.70
2022-11-04T23:35:42.112Z,61.00
2022-11-04T23:38:10.750Z,54.30
2022-11-04T23:40:39.713Z,57.07
2022-11-04T23:43:09.993Z,52.00
2022-11-04T23:45:56.412Z,49.57
2022-11-04T23:48:41.977Z,52.40
2022-11-04T23:51:29.520Z,51.23
2022-11-04T23:54:20.378Z,48.47
2022-11-04T23:57:06.524Z,58.60
2022-11-04T23:59:54.121Z,50.37
